Time;durP1;ratioP1;P1;durP2;ratioP2;P2;SDS_P1;SDS_P2;PMS_P1;PMS_P2;Temp;Humidity;BMP_temperature;BMP_pressure;BME280_temperature;BME280_humidity;BME280_pressure;Samples;Min_cycle;Max_cycle;Signal;HPM_P1;HPM_P2
2021/06/21 00:00:19;;;;;;;4.62;1.47;;;;;;;21.82;58.22;99078.80;369931;108;1960915;-76
2021/06/21 00:01:25;;;;;;;3.49;1.41;;;;;;;21.81;58.23;99083.48;369057;108;1962911;-75
2021/06/21 00:02:38;;;;;;;4.06;1.54;;;;;;;21.92;58.27;99070.42;395181;104;1961969;-75
2021/06/21 00:03:43;;;;;;;4.36;1.32;;;;;;;21.82;58.21;99076.86;376381;107;1966001;-75
2021/06/21 00:04:57;;;;;;;5.12;1.56;;;;;;;21.92;58.41;99073.17;391089;104;2079772;-76
2021/06/21 00:06:02;;;;;;;4.29;1.34;;;;;;;21.81;58.28;99080.73;357752;107;2865882;-76
2021/06/21 00:07:14;;;;;;;3.31;1.42;;;;;;;21.92;58.40;99075.92;405984;102;1985642;-74
2021/06/21 00:08:19;;;;;;;4.26;1.56;;;;;;;21.80;58.32;99073.58;376406;103;1960859;-74
2021/06/21 00:09:43;;;;;;;4.00;1.67;;;;;;;21.80;58.39;99078.27;383357;104;1960988;-74
2021/06/21 00:10:55;;;;;;;2.44;1.08;;;;;;;21.91;58.28;99077.02;394066;104;1960963;-75
2021/06/21 00:12:01;;;;;;;5.27;1.58;;;;;;;21.78;58.24;99077.73;377421;107;1968919;-74
2021/06/21 00:13:13;;;;;;;4.08;1.31;;;;;;;21.89;58.36;99084.77;395128;103;1984894;-73
2021/06/21 00:14:18;;;;;;;4.12;1.37;;;;;;;21.75;58.27;99081.89;377810;106;1960758;-76
2021/06/21 00:15:41;;;;;;;4.31;1.61;;;;;;;21.73;58.31;99079.45;352502;110;1960864;-74
2021/06/21 00:16:53;;;;;;;4.74;1.80;;;;;;;21.82;58.43;99078.80;395461;104;1985835;-75
2021/06/21 00:17:59;;;;;;;5.16;1.56;;;;;;;21.70;58.40;99079.23;376402;105;1961060;-74
2021/06/21 00:19:12;;;;;;;6.79;1.49;;;;;;;21.80;58.56;99078.27;350228;103;2895011;-74
2021/06/21 00:20:19;;;;;;;5.15;1.28;;;;;;;21.67;58.60;99082.54;350818;107;1960763;-75
2021/06/21 00:21:38;;;;;;;4.79;1.58;;;;;;;21.74;58.78;99078.33;386548;104;1993941;-75
2021/06/21 00:22:45;;;;;;;4.09;1.43;;;;;;;21.63;58.70;99078.76;365752;105;1960772;-75
2021/06/21 00:23:57;;;;;;;5.78;1.75;;;;;;;21.71;58.83;99070.67;379776;108;1985875;-74
2021/06/21 00:25:04;;;;;;;5.10;1.87;;;;;;;21.58;58.84;99076.88;360668;111;1960991;-74
2021/06/21 00:26:28;;;;;;;7.43;1.48;;;;;;;21.56;58.92;99070.85;362624;112;1961928;-75
2021/06/21 00:27:34;;;;;;;4.08;1.46;;;;;;;21.55;58.92;99082.97;361817;111;1962051;-76
2021/06/21 00:28:46;;;;;;;4.34;1.44;;;;;;;21.64;59.17;99080.38;390509;104;2072006;-75
2021/06/21 00:29:52;;;;;;;6.88;1.58;;;;;;;21.53;59.22;99076.13;377186;107;1961831;-74
2021/06/21 00:30:58;;;;;;;5.78;1.64;;;;;;;21.51;59.29;99074.50;376957;105;1962861;-76
2021/06/21 00:32:11;;;;;;;6.23;1.39;;;;;;;21.61;59.22;99081.78;334356;109;2729921;-75
2021/06/21 00:33:17;;;;;;;4.42;1.51;;;;;;;21.50;59.20;99074.78;326776;111;1983988;-74
2021/06/21 00:34:29;;;;;;;3.57;1.43;;;;;;;21.60;59.25;99073.85;394295;104;1986940;-75
2021/06/21 00:35:34;;;;;;;3.45;1.61;;;;;;;21.48;59.19;99074.25;372502;107;1963005;-75
2021/06/21 00:36:47;;;;;;;4.90;1.81;;;;;;;21.57;59.35;99072.51;392487;104;2070997;-74
2021/06/21 00:37:59;;;;;;;5.41;1.70;;;;;;;21.34;59.30;99041.14;386899;104;2072095;-72
2021/06/21 00:39:07;;;;;;;4.63;1.54;;;;;;;21.44;59.36;99075.96;369453;107;1961986;-72
2021/06/21 00:40:19;;;;;;;3.37;1.32;;;;;;;21.53;59.44;99079.69;373069;103;1986035;-75
2021/06/21 00:41:24;;;;;;;4.79;1.82;;;;;;;21.39;59.50;99079.57;352527;106;1961957;-76
2021/06/21 00:42:40;;;;;;;5.51;1.47;;;;;;;21.49;59.58;99075.91;395374;104;1987007;-75
2021/06/21 00:43:52;;;;;;;3.73;1.59;;;;;;;21.47;59.68;99067.94;386002;106;1985972;-74
2021/06/21 00:45:20;;;;;;;4.43;1.34;;;;;;;21.34;59.71;99076.84;360232;108;1962854;-75
2021/06/21 00:46:32;;;;;;;8.02;1.96;;;;;;;21.43;60.04;99071.55;386641;106;1985984;-77
2021/06/21 00:47:37;;;;;;;3.37;1.50;;;;;;;21.30;60.02;99075.78;368657;108;1961975;-75
2021/06/21 00:49:01;;;;;;;4.67;1.83;;;;;;;21.29;60.07;99077.72;327414;111;2640957;-76
2021/06/21 00:50:15;;;;;;;4.00;1.62;;;;;;;21.36;60.96;99073.83;390055;106;1986996;-75
2021/06/21 00:51:22;;;;;;;5.16;1.88;;;;;;;21.22;60.61;99071.77;368467;107;1962019;-75
2021/06/21 00:52:35;;;;;;;3.79;1.76;;;;;;;21.32;60.84;99062.58;385354;106;1986016;-74
2021/06/21 00:53:48;;;;;;;5.05;1.67;;;;;;;21.30;60.92;99068.38;343532;104;2226972;-72
2021/06/21 00:55:14;;;;;;;5.62;1.76;;;;;;;21.18;60.95;99064.39;373854;105;1962026;-72
2021/06/21 00:56:26;;;;;;;3.23;1.51;;;;;;;21.27;61.12;99063.45;391653;104;1986930;-73
2021/06/21 00:57:34;;;;;;;6.26;1.74;;;;;;;21.15;61.06;99068.54;375750;106;1961995;-73
2021/06/21 00:58:58;;;;;;;9.91;1.99;;;;;;;;;;370244;107;1961765;-73
2021/06/21 01:00:14;;;;;;;3.84;1.46;;;;;;;21.23;61.32;99062.41;395164;104;1986014;-73
2021/06/21 01:01:20;;;;;;;3.38;1.54;;;;;;;21.08;61.29;99059.81;344528;107;2557028;-74
2021/06/21 01:02:32;;;;;;;4.76;1.94;;;;;;;21.16;61.51;99056.43;390792;103;2072983;-74
2021/06/21 01:03:37;;;;;;;5.75;1.88;;;;;;;21.06;61.50;99062.86;378183;105;1962094;-75
2021/06/21 01:05:04;;;;;;;5.37;1.77;;;;;;;21.03;61.70;99066.16;341054;105;2705991;-72
2021/06/21 01:06:16;;;;;;;6.16;1.99;;;;;;;;;;359794;106;2487027;-75
2021/06/21 01:07:22;;;;;;;5.05;1.82;;;;;;;21.01;61.90;99067.56;335525;108;2497958;-73
2021/06/21 01:08:34;;;;;;;5.28;1.75;;;;;;;21.08;61.84;99055.13;393452;104;2081052;-75
2021/06/21 01:09:39;;;;;;;6.93;1.84;;;;;;;20.97;61.83;99061.84;381706;105;1961997;-74
2021/06/21 01:10:55;;;;;;;3.94;1.71;;;;;;;21.06;62.00;99059.27;378201;106;2970021;-74
2021/06/21 01:12:16;;;;;;;4.22;1.75;;;;;;;20.94;61.94;99061.61;363867;109;1964080;-74
2021/06/21 01:13:49;;;;;;;4.87;1.83;;;;;;;21.03;62.16;99051.62;370429;106;1985989;-75
2021/06/21 01:14:58;;;;;;;3.26;1.66;;;;;;;20.90;62.15;99058.61;363879;109;1961997;-74
2021/06/21 01:16:28;;;;;;;4.89;1.72;;;;;;;20.91;62.23;99062.19;344613;110;2843016;-74
2021/06/21 01:17:56;;;;;;;4.22;1.44;;;;;;;20.99;62.16;99051.39;383502;106;1987035;-75
2021/06/21 01:19:12;;;;;;;4.32;1.63;;;;;;;20.99;62.16;99067.05;394264;103;1985988;-76
2021/06/21 01:21:17;;;;;;;3.87;1.56;;;;;;;20.86;62.12;99065.80;375205;106;1961909;-75
2021/06/21 01:23:09;;;;;;;3.52;1.59;;;;;;;20.95;62.38;99064.05;393733;104;1986003;-73
2021/06/21 01:24:33;;;;;;;6.09;2.09;;;;;;;20.82;62.29;99060.05;366508;107;1961994;-75
2021/06/21 01:25:50;;;;;;;3.58;1.91;;;;;;;20.91;62.49;99062.19;348085;104;2793988;-75
2021/06/21 01:27:10;;;;;;;4.96;2.13;;;;;;;20.77;62.41;99054.63;373820;105;1962032;-75
2021/06/21 01:28:42;;;;;;;4.76;2.01;;;;;;;20.88;62.71;99058.09;383839;106;1986019;-73
2021/06/21 01:30:00;;;;;;;5.97;1.98;;;;;;;20.75;62.57;99056.83;328008;111;2591998;-75
2021/06/21 01:31:27;;;;;;;6.19;2.12;;;;;;;20.74;62.66;99057.11;333517;109;1961951;-75
2021/06/21 01:32:43;;;;;;;4.69;2.04;;;;;;;20.85;62.69;99058.65;384782;106;1985923;-75
2021/06/21 01:33:52;;;;;;;3.61;1.92;;;;;;;20.71;62.69;99052.20;300800;110;2266043;-76
2021/06/21 01:35:06;;;;;;;5.87;2.16;;;;;;;20.83;62.79;99060.89;352214;106;2064946;-75
2021/06/21 01:36:22;;;;;;;5.76;2.08;;;;;;;20.80;62.88;99055.98;350014;104;2817945;-75
2021/06/21 01:37:48;;;;;;;5.00;1.99;;;;;;;20.69;62.77;99054.41;346850;105;1979908;-75
2021/06/21 01:39:01;;;;;;;5.04;1.73;;;;;;;20.78;62.92;99050.77;378640;104;1986036;-77
2021/06/21 01:40:09;;;;;;;3.86;1.72;;;;;;;20.67;62.84;99053.87;376280;107;1962026;-75
2021/06/21 01:41:36;;;;;;;4.81;2.02;;;;;;;20.64;62.91;99041.57;373634;106;1961797;-76
2021/06/21 01:42:52;;;;;;;6.94;2.19;;;;;;;20.73;63.04;99045.31;393782;104;1986006;-75
2021/06/21 01:43:59;;;;;;;4.29;1.77;;;;;;;20.61;63.02;99051.20;375914;107;1962003;-73
2021/06/21 01:45:13;;;;;;;5.17;1.92;;;;;;;20.71;63.06;99046.71;357953;101;2145066;-75
2021/06/21 01:46:22;;;;;;;4.50;2.09;;;;;;;20.59;63.02;99039.68;377222;107;1960677;-75
2021/06/21 01:47:37;;;;;;;12.58;2.28;;;;;;;20.73;63.14;99036.27;387248;106;1987034;-75
2021/06/21 01:48:53;;;;;;;6.01;1.70;;;;;;;20.67;63.17;99040.14;312813;110;2160949;-75
2021/06/21 01:50:23;;;;;;;5.86;1.78;;;;;;;20.72;63.01;99031.88;360973;110;1962004;-76
2021/06/21 01:51:37;;;;;;;5.33;1.76;;;;;;;20.97;62.48;99033.57;389825;106;1986009;-73
2021/06/21 01:52:44;;;;;;;4.01;1.87;;;;;;;20.90;62.37;99033.89;369831;108;1961969;-73
2021/06/21 01:54:01;;;;;;;4.22;1.68;;;;;;;21.04;62.19;99025.82;377654;108;1986013;-74
2021/06/21 01:55:15;;;;;;;4.46;1.56;;;;;;;21.07;62.10;99033.47;385745;106;1986972;-75
2021/06/21 01:56:44;;;;;;;3.92;1.50;;;;;;;21.00;62.01;99027.49;348293;110;1962073;-74
2021/06/21 01:57:57;;;;;;;3.82;1.82;;;;;;;;;;403737;101;1985882;-73
2021/06/21 01:59:05;;;;;;;4.24;1.56;;;;;;;21.04;61.79;99032.13;384517;103;1961978;-74
2021/06/21 02:00:19;;;;;;;5.00;1.69;;;;;;;21.18;61.74;99037.73;377283;108;1986001;-74
2021/06/21 02:01:33;;;;;;;6.29;1.96;;;;;;;21.24;61.55;99035.75;353881;104;2091960;-76
2021/06/21 02:02:58;;;;;;;4.43;1.72;;;;;;;21.13;61.46;99034.23;331497;106;2755997;-72
2021/06/21 02:04:14;;;;;;;3.62;1.46;;;;;;;21.29;61.39;99035.70;386145;106;1987007;-74
2021/06/21 02:05:20;;;;;;;6.22;1.82;;;;;;;21.21;61.15;99034.41;367284;109;1962000;-74
2021/06/21 02:06:35;;;;;;;6.30;1.89;;;;;;;21.35;61.08;99041.95;401412;104;1982866;-74
2021/06/21 02:07:43;;;;;;;5.78;1.48;;;;;;;21.30;60.97;99043.66;379788;105;1961888;-73
2021/06/21 02:08:51;;;;;;;4.43;1.54;;;;;;;21.33;60.79;99042.25;345892;107;1975948;-74
2021/06/21 02:10:05;;;;;;;4.64;1.55;;;;;;;21.47;60.67;99042.40;347190;108;2872974;-75
2021/06/21 02:11:11;;;;;;;6.88;1.94;;;;;;;21.38;60.66;99046.88;358630;112;1962002;-74
2021/06/21 02:12:25;;;;;;;4.37;1.71;;;;;;;21.55;60.36;99040.94;394067;104;2080951;-74
2021/06/21 02:13:33;;;;;;;7.96;2.04;;;;;;;21.46;60.35;99041.58;373249;107;1961969;-73
2021/06/21 02:14:40;;;;;;;4.23;1.52;;;;;;;21.47;60.28;99037.71;364681;106;2928067;-74
2021/06/21 02:15:54;;;;;;;4.60;1.70;;;;;;;21.62;60.21;99044.12;397035;104;1986046;-75
2021/06/21 02:17:03;;;;;;;4.38;2.07;;;;;;;21.53;60.08;99041.21;305623;107;2340926;-74
2021/06/21 02:18:20;;;;;;;4.38;1.95;;;;;;;21.64;60.09;99033.66;346768;104;2181965;-75
2021/06/21 02:19:30;;;;;;;4.04;1.68;;;;;;;21.54;60.01;99040.12;340150;106;2639090;-74
2021/06/21 02:20:44;;;;;;;2.64;1.43;;;;;;;21.63;59.96;99043.03;397600;104;1985934;-75
2021/06/21 02:21:49;;;;;;;7.78;1.75;;;;;;;21.53;59.94;99043.15;380912;105;1962965;-75
2021/06/21 02:23:14;;;;;;;4.99;1.64;;;;;;;21.53;59.94;99043.96;369354;105;1962022;-74
2021/06/21 02:24:27;;;;;;;6.92;1.83;;;;;;;21.63;59.95;99046.59;378788;105;2875079;-73
2021/06/21 02:25:34;;;;;;;4.27;1.47;;;;;;;21.08;60.01;98971.94;327365;108;2111855;-75
2021/06/21 02:26:48;;;;;;;6.32;1.75;;;;;;;21.68;59.99;99034.72;394880;104;1986012;-74
2021/06/21 02:27:54;;;;;;;3.86;1.52;;;;;;;21.61;59.89;99046.06;365763;107;1963980;-75
2021/06/21 02:29:06;;;;;;;5.29;1.79;;;;;;;21.77;59.65;99041.19;388584;104;2074948;-74
2021/06/21 02:30:15;;;;;;;4.08;1.60;;;;;;;21.70;59.51;99040.75;374334;107;1961996;-74
2021/06/21 02:31:29;;;;;;;3.60;1.37;;;;;;;21.85;59.33;99036.95;392320;104;1986027;-74
2021/06/21 02:32:36;;;;;;;5.31;1.99;;;;;;;21.77;59.29;99034.88;328141;107;2114051;-75
2021/06/21 02:34:01;;;;;;;5.00;2.02;;;;;;;21.82;59.13;99037.55;374649;107;1960867;-74
2021/06/21 02:35:15;;;;;;;6.26;2.04;;;;;;;21.97;58.80;99039.29;385464;106;1986027;-75
2021/06/21 02:36:27;;;;;;;8.18;2.07;;;;;;;21.99;58.77;99043.38;392984;104;1986038;-74
2021/06/21 02:37:50;;;;;;;4.44;1.53;;;;;;;21.85;58.83;99046.02;362805;107;2856013;-75
2021/06/21 02:39:04;;;;;;;7.01;1.62;;;;;;;22.01;58.79;99037.56;404304;101;1986987;-74
2021/06/21 02:40:17;;;;;;;5.46;1.47;;;;;;;21.99;58.76;99043.38;348595;105;2103783;-75
2021/06/21 02:41:40;;;;;;;4.13;1.34;;;;;;;21.88;58.71;99044.61;371410;105;1960676;-74
2021/06/21 02:42:53;;;;;;;6.94;1.72;;;;;;;22.00;58.61;99034.00;357844;106;2518801;-74
2021/06/21 02:43:59;;;;;;;4.50;1.64;;;;;;;21.90;58.62;99034.95;320926;109;2073641;-76
2021/06/21 02:45:23;;;;;;;5.16;1.71;;;;;;;21.91;58.64;99035.77;364428;111;1960991;-75
2021/06/21 02:46:35;;;;;;;6.05;1.79;;;;;;;22.02;58.63;99039.22;394058;104;1986929;-74
2021/06/21 02:47:43;;;;;;;5.75;1.93;;;;;;;21.89;58.64;99036.08;374906;107;1962002;-75
2021/06/21 02:48:56;;;;;;;4.40;1.54;;;;;;;22.01;58.70;99026.56;385129;103;1985830;-74
2021/06/21 02:50:04;;;;;;;4.67;1.71;;;;;;;21.91;58.69;99030.27;372374;106;1962093;-75
2021/06/21 02:51:23;;;;;;;5.21;1.84;;;;;;;22.01;58.66;99032.06;393825;104;1986072;-75
2021/06/21 02:52:33;;;;;;;;;;;;;;;21.89;58.69;99035.27;368096;110;1960954;-74
2021/06/21 02:53:48;;;;;;;4.79;1.70;;;;;;;21.88;58.75;99033.61;362176;109;1960839;-75
2021/06/21 02:55:07;;;;;;;4.71;1.95;;;;;;;21.96;58.76;99030.20;376883;106;2856013;-75
2021/06/21 02:56:33;;;;;;;3.29;1.71;;;;;;;21.88;58.72;99033.61;367076;109;1962885;-74
2021/06/21 02:57:55;;;;;;;5.12;1.82;;;;;;;21.99;58.69;99035.13;389250;104;2070931;-74
2021/06/21 02:59:11;;;;;;;4.86;1.79;;;;;;;22.00;58.62;99036.75;373993;106;1986900;-73
2021/06/21 03:00:39;;;;;;;3.37;1.52;;;;;;;21.88;58.53;99037.17;364227;110;1962717;-74
2021/06/21 03:01:54;;;;;;;3.75;1.56;;;;;;;21.98;58.75;99038.16;392754;104;1986046;-74
2021/06/21 03:03:01;;;;;;;2.93;1.68;;;;;;;21.90;58.74;99031.39;370370;107;1965019;-75
2021/06/21 03:04:15;;;;;;;6.17;3.18;;;;;;;22.05;58.64;99031.18;396838;104;1967956;-73
2021/06/21 03:05:22;;;;;;;4.24;1.84;;;;;;;22.00;58.54;99033.19;381546;105;1962036;-73
2021/06/21 03:06:48;;;;;;;5.18;1.60;;;;;;;22.04;58.38;99034.22;379995;105;1962062;-73
2021/06/21 03:07:54;;;;;;;4.91;1.85;;;;;;;22.03;58.18;99038.91;380362;105;1962037;-74
2021/06/21 03:09:08;;;;;;;7.59;2.01;;;;;;;22.17;58.29;99038.97;402160;101;1994012;-74
2021/06/21 03:10:14;;;;;;;5.41;1.89;;;;;;;22.10;58.14;99039.36;384209;105;1961913;-75
2021/06/21 03:11:27;;;;;;;6.02;2.08;;;;;;;22.25;57.98;99040.27;361759;101;2111034;-74
2021/06/21 03:12:33;;;;;;;6.12;1.84;;;;;;;22.18;58.02;99046.13;373316;104;1961911;-75
2021/06/21 03:13:39;;;;;;;5.32;2.00;;;;;;;22.22;57.93;99046.38;375912;105;1963906;-73
2021/06/21 03:14:51;;;;;;;3.90;1.59;;;;;;;22.39;57.70;99043.92;379331;106;2861006;-75
2021/06/21 03:16:05;;;;;;;6.25;2.20;;;;;;;22.44;57.58;99040.25;394088;104;1987062;-75
2021/06/21 03:17:29;;;;;;;3.41;1.84;;;;;;;22.37;57.50;99035.95;374775;107;1961947;-74
2021/06/21 03:18:44;;;;;;;6.22;2.52;;;;;;;22.53;57.24;99032.95;390488;103;2072007;-74
2021/06/21 03:20:09;;;;;;;5.73;2.20;;;;;;;22.45;57.20;99039.96;378045;107;1963895;-74
2021/06/21 03:21:22;;;;;;;5.07;2.51;;;;;;;22.61;57.09;99032.27;396878;104;1985964;-75
2021/06/21 03:22:27;;;;;;;5.05;2.32;;;;;;;22.53;57.00;99044.78;372512;107;1964936;-75
2021/06/21 03:23:52;;;;;;;10.97;2.64;;;;;;;22.56;57.04;99038.67;367539;109;1962033;-74
2021/06/21 03:25:07;;;;;;;6.05;2.57;;;;;;;22.71;56.93;99037.61;347614;106;2690093;-74
2021/06/21 03:26:12;;;;;;;6.07;2.36;;;;;;;22.65;56.86;99043.48;368926;107;1960889;-77
2021/06/21 03:27:34;;;;;;;5.54;2.23;;;;;;;22.79;56.61;99044.36;391989;104;1985964;-74
2021/06/21 03:28:46;;;;;;;4.27;1.97;;;;;;;22.82;56.59;99036.30;331690;106;2258058;-73
2021/06/21 03:30:14;;;;;;;9.84;2.02;;;;;;;22.72;56.49;99041.98;368147;109;1961976;-73
2021/06/21 03:31:21;;;;;;;7.14;1.88;;;;;;;22.71;56.40;99036.80;367033;109;1962918;-75
2021/06/21 03:32:33;;;;;;;8.01;2.76;;;;;;;22.79;56.40;99049.88;370608;109;1962043;-73
2021/06/21 03:33:45;;;;;;;5.78;2.01;;;;;;;22.95;56.36;99044.91;394815;104;1985894;-74
2021/06/21 03:34:50;;;;;;;3.72;1.74;;;;;;;22.87;56.25;99051.12;374844;107;1963056;-76
2021/06/21 03:35:56;;;;;;;4.72;2.18;;;;;;;22.90;56.07;99045.81;377986;107;1962049;-74
2021/06/21 03:37:08;;;;;;;9.29;2.53;;;;;;;23.02;56.03;99045.34;387959;106;1985793;-73
2021/06/21 03:38:19;;;;;;;7.22;2.38;;;;;;;22.94;55.89;99043.26;369041;107;1961978;-74
2021/06/21 03:39:31;;;;;;;6.55;2.22;;;;;;;23.06;55.93;99042.81;385577;106;1986017;-75
2021/06/21 03:40:45;;;;;;;6.14;2.36;;;;;;;23.06;55.81;99043.63;393377;103;1985874;-75
2021/06/21 03:42:08;;;;;;;8.89;4.67;;;;;;;22.96;55.86;99044.62;376883;107;1961904;-75
2021/06/21 03:43:22;;;;;;;8.69;3.96;;;;;;;23.11;55.74;99048.23;391331;104;1985908;-74
2021/06/21 03:44:27;;;;;;;7.86;3.18;;;;;;;22.99;55.65;99041.26;367994;107;1961983;-73
2021/06/21 03:45:41;;;;;;;14.26;3.83;;;;;;;23.13;55.59;99041.30;393085;104;2071782;-75
2021/06/21 03:46:46;;;;;;;7.27;2.52;;;;;;;23.02;55.53;99040.67;365433;107;2908901;-77
2021/06/21 03:48:10;;;;;;;11.47;3.62;;;;;;;23.02;55.54;99035.16;373893;107;1962047;-75
2021/06/21 03:49:23;;;;;;;10.20;3.18;;;;;;;23.15;55.49;99035.47;345737;104;2872959;-76
2021/06/21 03:50:31;;;;;;;10.64;4.57;;;;;;;23.03;55.48;99031.28;379862;103;1962944;-76
2021/06/21 03:51:49;;;;;;;12.86;4.52;;;;;;;23.16;55.46;99028.86;367141;104;1984800;-75
2021/06/21 03:53:23;;;;;;;8.30;2.68;;;;;;;23.20;55.45;99022.41;389918;104;1985909;-75
2021/06/21 03:54:35;;;;;;;7.46;2.49;;;;;;;23.23;55.25;99027.34;381090;104;1985928;-75
2021/06/21 03:55:41;;;;;;;8.34;2.25;;;;;;;23.14;55.14;99026.39;381743;104;1960808;-75
2021/06/21 03:56:46;;;;;;;10.96;2.47;;;;;;;23.16;55.06;99026.10;383799;104;1961870;-75
2021/06/21 03:57:59;;;;;;;6.41;2.11;;;;;;;23.25;54.87;99016.80;377549;108;1984938;-75
2021/06/21 03:59:05;;;;;;;8.79;2.49;;;;;;;23.17;54.94;99020.27;361647;112;1960985;-75
2021/06/21 04:00:21;;;;;;;8.02;2.27;;;;;;;23.33;54.82;99018.03;387816;106;2072812;-75
2021/06/21 04:01:27;;;;;;;9.06;2.47;;;;;;;23.28;54.60;99023.64;335561;107;2661992;-76
2021/06/21 04:02:50;;;;;;;7.68;2.92;;;;;;;23.32;54.48;99018.35;371620;107;1960973;-76
2021/06/21 04:04:03;;;;;;;7.42;2.41;;;;;;;23.48;54.18;99028.75;382998;101;2070669;-75
2021/06/21 04:05:09;;;;;;;6.70;2.19;;;;;;;23.38;53.89;99019.88;371672;103;1960941;-76
2021/06/21 04:06:23;;;;;;;11.09;2.85;;;;;;;23.49;53.91;99027.62;385197;106;1963804;-76
2021/06/21 04:07:29;;;;;;;8.14;2.32;;;;;;;23.41;53.88;99027.52;334181;110;2892048;-76
2021/06/21 04:08:53;;;;;;;7.21;2.00;;;;;;;23.43;53.75;99025.28;350898;114;1962071;-76
2021/06/21 04:10:08;;;;;;;7.66;2.11;;;;;;;23.56;53.68;99024.47;401985;101;1961946;-75
2021/06/21 04:11:13;;;;;;;7.63;1.98;;;;;;;23.48;53.63;99028.75;386461;105;1972029;-75
2021/06/21 04:12:18;;;;;;;10.07;2.41;;;;;;;23.51;53.54;99032.03;384478;105;1965970;-74
2021/06/21 04:13:33;;;;;;;5.23;2.09;;;;;;;23.68;53.39;99034.95;380756;103;2843978;-74
2021/06/21 04:14:45;;;;;;;11.13;3.48;;;;;;;23.71;53.30;99028.85;380051;108;1984924;-76
2021/06/21 04:16:09;;;;;;;9.90;3.48;;;;;;;23.66;53.22;99029.77;361137;111;1961940;-76
2021/06/21 04:17:22;;;;;;;7.10;2.48;;;;;;;23.82;53.05;99029.48;375511;104;2855922;-76
2021/06/21 04:18:28;;;;;;;6.68;2.28;;;;;;;23.75;52.92;99029.88;320643;106;2230941;-75
2021/06/21 04:19:51;;;;;;;8.53;1.85;;;;;;;23.78;52.81;99034.77;377783;107;1961839;-75
2021/06/21 04:21:04;;;;;;;8.76;2.48;;;;;;;23.91;52.67;99027.61;337972;106;2207979;-76
2021/06/21 04:22:09;;;;;;;7.88;2.07;;;;;;;23.82;52.29;99026.72;336039;111;1961989;-77
2021/06/21 04:23:15;;;;;;;7.30;1.86;;;;;;;23.85;52.31;99023.34;333639;108;2021979;-78
2021/06/21 04:24:27;;;;;;;6.18;2.02;;;;;;;23.98;52.07;99033.52;369831;109;1964090;-76
2021/06/21 04:25:33;;;;;;;5.81;1.88;;;;;;;23.90;51.96;99025.98;351490;113;1970027;-77
2021/06/21 04:26:41;;;;;;;5.86;1.97;;;;;;;23.95;51.67;99030.55;341867;112;1962019;-76
2021/06/21 04:27:55;;;;;;;9.38;2.77;;;;;;;24.11;51.53;99035.43;385487;106;1986977;-75
2021/06/21 04:29:07;;;;;;;5.53;1.89;;;;;;;24.16;51.44;99034.51;387169;106;1985969;-76
2021/06/21 04:30:32;;;;;;;8.37;2.82;;;;;;;24.09;51.33;99031.35;320519;110;2793883;-77
2021/06/21 04:31:37;;;;;;;5.56;2.16;;;;;;;24.15;51.25;99035.62;356526;110;1964196;-75
2021/06/21 04:32:43;;;;;;;3.87;1.60;;;;;;;24.20;51.10;99038.26;356188;110;1962040;-75
2021/06/21 04:33:56;;;;;;;5.18;1.79;;;;;;;24.32;50.99;99021.16;383799;106;2071086;-75
2021/06/21 04:35:11;;;;;;;5.74;2.19;;;;;;;24.34;50.81;99033.52;348282;104;2753981;-74
2021/06/21 04:36:18;;;;;;;9.29;2.45;;;;;;;24.26;50.71;99025.15;360864;109;1972088;-75
2021/06/21 04:37:30;;;;;;;7.57;2.63;;;;;;;24.39;50.66;99031.75;391721;104;1962976;-76
2021/06/21 04:38:42;;;;;;;9.09;2.37;;;;;;;24.40;50.68;99019.57;396372;104;1985823;-75
2021/06/21 04:39:48;;;;;;;5.24;2.17;;;;;;;24.32;50.63;99026.69;383390;105;1961926;-76
2021/06/21 04:41:01;;;;;;;7.48;2.04;;;;;;;24.47;50.60;99026.32;385567;106;1986039;-75
2021/06/21 04:42:13;;;;;;;8.62;2.95;;;;;;;24.51;50.49;99024.58;396132;104;1987034;-75
2021/06/21 04:43:19;;;;;;;6.89;2.31;;;;;;;24.45;50.53;99020.32;372418;107;1962031;-76
2021/06/21 04:44:32;;;;;;;8.28;3.23;;;;;;;24.62;50.29;99027.09;324868;106;2442042;-75
2021/06/21 04:45:38;;;;;;;9.64;2.31;;;;;;;24.56;50.23;99027.22;361074;109;1969862;-74
2021/06/21 04:46:43;;;;;;;5.19;1.74;;;;;;;24.60;49.94;99030.15;371464;109;1960771;-75
2021/06/21 04:47:55;;;;;;;3.60;1.51;;;;;;;24.73;49.77;99023.73;395416;104;1986059;-74
2021/06/21 04:49:12;;;;;;;5.19;1.50;;;;;;;24.77;49.58;99023.95;385654;104;2906076;-76
2021/06/21 04:50:18;;;;;;;4.72;1.73;;;;;;;24.66;49.32;99028.88;373256;107;1961049;-74
2021/06/21 04:51:32;;;;;;;6.78;2.14;;;;;;;24.76;48.88;99019.53;394019;103;1984875;-75
2021/06/21 04:52:47;;;;;;;6.81;2.68;;;;;;;24.78;48.92;99011.75;364151;104;2009873;-74
2021/06/21 04:54:00;;;;;;;6.38;1.78;;;;;;;24.76;48.97;99023.10;321199;109;2438829;-75
2021/06/21 04:55:24;;;;;;;6.49;2.14;;;;;;;24.67;48.94;99010.39;360687;112;1961076;-76
2021/06/21 04:56:35;;;;;;;5.83;1.71;;;;;;;24.65;48.74;99018.17;357827;111;1961083;-75
2021/06/21 04:57:41;;;;;;;5.18;1.43;;;;;;;24.64;48.32;99011.03;361024;109;1963011;-74
2021/06/21 04:58:54;;;;;;;3.35;1.52;;;;;;;24.71;48.67;99025.99;386523;106;1961939;-75
2021/06/21 05:00:03;;;;;;;5.76;1.74;;;;;;;24.60;48.71;99021.06;366252;107;1971029;-75
2021/06/21 05:01:15;;;;;;;5.43;1.96;;;;;;;24.72;48.71;99026.84;386311;106;1986022;-75
2021/06/21 05:02:31;;;;;;;6.87;2.33;;;;;;;24.64;48.66;99019.31;367437;108;1962031;-75
2021/06/21 05:03:37;;;;;;;6.83;2.19;;;;;;;24.70;48.66;99026.33;350669;115;1962982;-75
2021/06/21 05:04:43;;;;;;;6.83;2.34;;;;;;;24.77;48.62;99029.47;347519;115;1962010;-74
2021/06/21 05:05:56;;;;;;;3.50;1.66;;;;;;;24.95;48.39;99019.31;388249;104;2072859;-76
2021/06/21 05:07:03;;;;;;;5.96;1.67;;;;;;;24.88;48.39;99025.30;374697;106;1961899;-75
2021/06/21 05:08:16;;;;;;;7.61;3.12;;;;;;;25.03;48.28;99028.78;336591;104;2314067;-75
2021/06/21 05:09:21;;;;;;;9.08;3.77;;;;;;;24.98;48.31;99026.95;346221;106;2037927;-75
2021/06/21 05:10:33;;;;;;;10.71;2.50;;;;;;;25.18;48.17;99025.64;393152;104;1987039;-74
2021/06/21 05:11:38;;;;;;;5.74;2.13;;;;;;;25.10;47.89;99029.95;375421;107;1961886;-75
2021/06/21 05:12:44;;;;;;;7.66;2.52;;;;;;;25.10;47.89;99021.67;374635;107;1963092;-75
2021/06/21 05:13:57;;;;;;;7.92;3.64;;;;;;;25.25;47.74;99022.43;394586;104;1961990;-77
2021/06/21 05:15:05;;;;;;;10.19;3.52;;;;;;;25.17;47.72;99030.36;320650;107;2238948;-77
2021/06/21 05:16:11;;;;;;;7.52;2.89;;;;;;;25.19;47.67;99028.09;366900;109;1962064;-76
2021/06/21 05:17:24;;;;;;;5.86;2.26;;;;;;;25.37;47.44;99028.15;342066;106;2784958;-76
2021/06/21 05:18:37;;;;;;;6.07;2.02;;;;;;;25.42;47.26;99028.81;391688;104;2072992;-74
2021/06/21 05:19:43;;;;;;;7.42;2.66;;;;;;;25.37;47.22;99019.85;376262;107;1961788;-76
2021/06/21 05:20:51;;;;;;;6.41;2.07;;;;;;;25.41;47.23;99018.09;318582;105;2256979;-75
2021/06/21 05:21:56;;;;;;;5.07;1.91;;;;;;;25.37;47.23;99011.56;361124;107;1961908;-75
2021/06/21 05:23:01;;;;;;;6.48;1.64;;;;;;;25.45;47.24;99021.83;350724;107;1962052;-75
2021/06/21 05:24:13;;;;;;;4.41;1.68;;;;;;;25.59;47.12;99019.78;392592;104;1985076;-75
2021/06/21 05:25:19;;;;;;;5.58;1.86;;;;;;;25.51;47.06;99023.34;377103;106;1961953;-75
2021/06/21 05:26:32;;;;;;;7.36;2.00;;;;;;;25.63;46.79;99017.17;382846;106;2072838;-75
2021/06/21 05:27:38;;;;;;;8.41;1.84;;;;;;;25.54;46.71;99019.92;344921;109;1964012;-75
2021/06/21 05:29:01;;;;;;;6.00;1.99;;;;;;;25.56;46.78;99025.11;352022;113;1961976;-74
2021/06/21 05:30:15;;;;;;;6.23;2.14;;;;;;;25.68;46.87;99017.02;362723;106;2071771;-75
2021/06/21 05:31:21;;;;;;;4.46;1.80;;;;;;;25.60;46.61;99024.16;373185;107;1962910;-76
2021/06/21 05:32:27;;;;;;;4.39;1.69;;;;;;;25.61;46.47;99014.72;372632;107;1962881;-75
2021/06/21 05:33:33;;;;;;;7.03;1.83;;;;;;;25.68;46.35;99018.98;370038;109;1961927;-76
2021/06/21 05:34:46;;;;;;;5.19;1.61;;;;;;;25.83;46.26;99016.57;342951;108;2632039;-76
2021/06/21 05:35:52;;;;;;;6.44;3.29;;;;;;;25.78;45.96;99013.95;348098;111;1962017;-75
2021/06/21 05:37:04;;;;;;;7.74;2.23;;;;;;;25.92;45.84;99013.03;394100;104;1985932;-76